Time,TemperatureF,DewpointF,PressureIn,WindDirection,WindDirectionDegrees,WindSpeedMPH,WindSpeedGustMPH,Humidity,HourlyPrecipIn,Conditions,Clouds,dailyrainin,SoftwareType,DateUTC
2013-03-06 00:00:00,39.1,38.8,29.69,SE,125,2.0,5.0,99,0.02,,-RA,0.50,VWS V14.01,2013-03-06 05:00:00,
2013-03-06 00:01:00,39.1,38.8,29.69,SE,125,2.0,2.0,99,0.00,,-RA,0.00,VWS V14.01,2013-03-06 05:01:00,
2013-03-06 00:02:00,39.1,38.8,29.69,ESE,120,1.0,2.0,99,0.00,,,0.00,VWS V14.01,2013-03-06 05:02:00,
2013-03-06 00:07:00,39.1,38.8,29.69,ESE,120,0.0,3.0,99,0.00,,,0.00,VWS V14.01,2013-03-06 05:07:00,
2013-03-06 00:13:00,39.2,39.2,29.69,ESE,119,2.0,4.0,100,0.00,,,0.00,VWS V14.01,2013-03-06 05:13:00,
2013-03-06 00:19:00,39.2,39.2,29.67,ESE,120,1.0,4.0,100,0.00,,,0.00,VWS V14.01,2013-03-06 05:19:00,
2013-03-06 00:25:00,39.3,39.3,29.67,ESE,120,2.0,3.0,100,0.00,,,0.00,VWS V14.01,2013-03-06 05:25:00,
2013-03-06 00:30:00,39.3,39.3,29.66,ESE,120,1.0,3.0,100,0.00,,,0.00,VWS V14.01,2013-03-06 05:30:00,
2013-03-06 00:35:00,39.5,39.5,29.66,ESE,120,1.0,3.0,100,0.00,,,0.00,VWS V14.01,2013-03-06 05:35:00,
2013-03-06 00:41:00,39.5,39.5,29.66,ESE,120,0.0,1.0,100,0.00,,,0.00,VWS V14.01,2013-03-06 05:41:00,
2013-03-06 00:47:00,39.6,39.6,29.65,ESE,115,0.0,3.0,100,0.00,,,0.00,VWS V14.01,2013-03-06 05:47:00,
2013-03-06 00:53:00,39.8,39.8,29.65,SSW,202,0.0,2.0,100,0.00,,,0.00,VWS V14.01,2013-03-06 05:53:00,
2013-03-06 00:59:00,39.8,39.8,29.64,SE,145,0.0,2.0,100,0.00,,,0.00,VWS V14.01,2013-03-06 05:59:00,
2013-03-06 01:05:00,39.8,39.8,29.64,SE,145,0.0,1.0,100,0.00,,,0.00,VWS V14.01,2013-03-06 06:05:00,
2013-03-06 01:12:00,39.9,39.9,29.64,SE,145,0.0,0.0,100,0.00,,,0.00,VWS V14.01,2013-03-06 06:12:00,
2013-03-06 01:18:00,39.9,39.9,29.64,SE,145,2.0,3.0,100,0.00,,,0.00,VWS V14.01,2013-03-06 06:18:00,
2013-03-06 01:24:00,39.9,39.9,29.64,SE,124,3.0,4.0,100,0.00,,,0.00,VWS V14.01,2013-03-06 06:24:00,
2013-03-06 01:30:00,39.9,39.9,29.62,SE,127,4.0,5.0,100,0.00,,,0.00,VWS V14.01,2013-03-06 06:30:00,
2013-03-06 01:36:00,39.9,39.9,29.62,West,264,0.0,6.0,100,0.00,,,0.00,VWS V14.01,2013-03-06 06:36:00,
2013-03-06 01:42:00,40.1,40.1,29.62,ESE,114,0.0,2.0,100,0.00,,,0.00,VWS V14.01,2013-03-06 06:42:00,
2013-03-06 01:48:00,40.1,40.1,29.62,ESE,114,0.0,2.0,100,0.00,,,0.00,VWS V14.01,2013-03-06 06:48:00,
2013-03-06 01:54:00,40.3,40.3,29.62,NNE,17,1.0,6.0,100,0.00,,,0.00,VWS V14.01,2013-03-06 06:54:00,
2013-03-06 02:00:00,40.5,40.5,29.62,NW,306,0.0,6.0,100,0.00,,,0.00,VWS V14.01,2013-03-06 07:00:00,
2013-03-06 02:06:00,40.5,40.5,29.62,NW,306,1.0,3.0,100,0.00,,,0.00,VWS V14.01,2013-03-06 07:06:00,
2013-03-06 02:12:00,40.5,40.5,29.62,NW,306,0.0,0.0,100,0.00,,,0.00,VWS V14.01,2013-03-06 07:12:00,
2013-03-06 02:18:00,40.3,40.3,29.61,NW,306,0.0,0.0,100,0.00,,,0.00,VWS V14.01,2013-03-06 07:18:00,
2013-03-06 02:24:00,40.2,40.2,29.61,NW,306,0.0,0.0,100,0.00,,,0.00,VWS V14.01,2013-03-06 07:24:00,
2013-03-06 02:30:00,40.2,40.2,29.61,WNW,301,0.0,2.0,100,0.00,,,0.00,VWS V14.01,2013-03-06 07:30:00,
2013-03-06 02:36:00,40.2,40.2,29.61,NW,315,1.0,3.0,100,0.00,,,0.00,VWS V14.01,2013-03-06 07:36:00,
2013-03-06 02:42:00,39.8,39.8,29.61,WNW,295,2.0,3.0,100,0.00,,,0.00,VWS V14.01,2013-03-06 07:42:00,
2013-03-06 02:48:00,39.3,39.3,29.62,WNW,288,8.0,11.0,100,0.00,,,0.00,VWS V14.01,2013-03-06 07:48:00,
2013-03-06 02:54:00,38.8,38.8,29.62,North,11,1.0,6.0,100,0.01,,,0.01,VWS V14.01,2013-03-06 07:54:00,
2013-03-06 03:00:00,38.5,38.5,29.62,NW,326,4.0,6.0,100,0.01,,,0.01,VWS V14.01,2013-03-06 08:00:00,
2013-03-06 03:06:00,38.0,38.0,29.62,NW,304,2.0,6.0,100,0.01,,-RA,0.01,VWS V14.01,2013-03-06 08:06:00,
2013-03-06 03:12:00,37.9,37.9,29.62,NW,304,3.0,4.0,100,0.01,,-RA,0.01,VWS V14.01,2013-03-06 08:12:00,
2013-03-06 03:18:00,37.9,37.9,29.62,NW,304,3.0,5.0,100,0.01,,-RA,0.01,VWS V14.01,2013-03-06 08:18:00,
2013-03-06 03:24:00,37.8,37.8,29.62,North,358,9.0,9.0,100,0.01,,-RA,0.01,VWS V14.01,2013-03-06 08:24:00,
2013-03-06 03:30:00,37.5,37.5,29.62,NW,307,1.0,9.0,100,0.01,,-RA,0.01,VWS V14.01,2013-03-06 08:30:00,
2013-03-06 03:36:00,37.3,37.3,29.62,West,278,0.0,6.0,100,0.01,,-RA,0.01,VWS V14.01,2013-03-06 08:36:00,
2013-03-06 03:42:00,37.2,37.2,29.62,NW,304,1.0,7.0,100,0.01,,-RA,0.01,VWS V14.01,2013-03-06 08:42:00,
2013-03-06 03:48:00,37.0,37.0,29.64,WNW,295,6.0,10.0,100,0.01,,-RA,0.01,VWS V14.01,2013-03-06 08:48:00,
2013-03-06 03:54:00,36.8,36.8,29.64,WNW,285,2.0,7.0,100,0.00,,-RA,0.01,VWS V14.01,2013-03-06 08:54:00,
2013-03-06 04:00:00,36.6,36.6,29.64,WSW,254,2.0,7.0,100,0.00,,-RA,0.01,VWS V14.01,2013-03-06 09:00:00,
2013-03-06 04:06:00,36.6,36.6,29.64,NW,309,2.0,9.0,100,0.00,,-RA,0.01,VWS V14.01,2013-03-06 09:06:00,
2013-03-06 04:12:00,36.6,36.6,29.64,West,270,2.0,5.0,100,0.00,,-RA,0.01,VWS V14.01,2013-03-06 09:12:00,
2013-03-06 04:18:00,36.6,36.6,29.65,West,264,2.0,10.0,100,0.00,,-RA,0.01,VWS V14.01,2013-03-06 09:18:00,
2013-03-06 04:24:00,36.5,36.5,29.65,West,264,3.0,9.0,100,0.00,,-RA,0.01,VWS V14.01,2013-03-06 09:24:00,
2013-03-06 04:30:00,36.5,36.5,29.65,WNW,288,4.0,12.0,100,0.00,,-RA,0.01,VWS V14.01,2013-03-06 09:30:00,
2013-03-06 04:35:00,36.5,36.5,29.65,WNW,289,2.0,5.0,100,0.00,,-RA,0.01,VWS V14.01,2013-03-06 09:35:00,
2013-03-06 04:41:00,36.5,36.5,29.65,West,278,5.0,5.0,100,0.00,,-RA,0.01,VWS V14.01,2013-03-06 09:41:00,
2013-03-06 04:47:00,36.5,36.5,29.65,NW,304,3.0,9.0,100,0.00,,-RA,0.01,VWS V14.01,2013-03-06 09:47:00,
2013-03-06 04:53:00,36.5,36.5,29.65,West,279,0.0,5.0,100,0.00,,-RA,0.01,VWS V14.01,2013-03-06 09:53:00,
2013-03-06 04:59:00,36.5,36.5,29.66,WNW,297,2.0,9.0,100,0.00,,-RA,0.01,VWS V14.01,2013-03-06 09:59:00,
2013-03-06 05:05:00,36.3,36.3,29.66,WNW,292,12.0,12.0,100,0.00,,BKN017,0.01,VWS V14.01,2013-03-06 10:05:00,
2013-03-06 05:11:00,36.3,36.0,29.66,West,264,5.0,9.0,99,0.01,,BKN017,0.02,VWS V14.01,2013-03-06 10:11:00,
2013-03-06 05:17:00,36.3,36.0,29.67,NE,55,4.0,12.0,99,0.01,,BKN017,0.02,VWS V14.01,2013-03-06 10:17:00,
2013-03-06 05:23:00,36.0,35.8,29.67,WNW,300,2.0,7.0,99,0.01,,BKN017,0.02,VWS V14.01,2013-03-06 10:23:00,
2013-03-06 05:29:00,35.8,35.5,29.67,WNW,303,6.0,10.0,99,0.01,,BKN017,0.02,VWS V14.01,2013-03-06 10:29:00,
2013-03-06 05:35:00,35.2,34.7,29.67,WNW,300,3.0,13.0,98,0.01,,BKN017,0.02,VWS V14.01,2013-03-06 10:35:00,
2013-03-06 05:41:00,34.7,33.9,29.67,NNW,335,2.0,7.0,97,0.01,,BKN017,0.02,VWS V14.01,2013-03-06 10:41:00,
2013-03-06 05:47:00,34.7,33.9,29.68,WNW,289,7.0,9.0,97,0.01,,BKN017,0.02,VWS V14.01,2013-03-06 10:47:00,
2013-03-06 05:53:00,34.6,33.8,29.68,West,278,4.0,14.0,97,0.01,,BKN017,0.02,VWS V14.01,2013-03-06 10:53:00,
2013-03-06 05:59:00,34.6,33.8,29.67,WNW,300,7.0,14.0,97,0.01,,BKN017,0.02,VWS V14.01,2013-03-06 10:59:00,
2013-03-06 06:05:00,34.6,33.6,29.67,WNW,289,8.0,11.0,96,0.01,,BKN250,0.02,VWS V14.01,2013-03-06 11:05:00,
2013-03-06 06:11:00,34.4,33.4,29.67,NW,314,4.0,9.0,96,0.00,,BKN250,0.02,VWS V14.01,2013-03-06 11:11:00,
2013-03-06 06:17:00,34.4,33.4,29.68,NW,307,5.0,12.0,96,0.00,,BKN250,0.02,VWS V14.01,2013-03-06 11:17:00,
2013-03-06 06:23:00,34.4,33.4,29.68,NW,316,4.0,12.0,96,0.00,,BKN250,0.02,VWS V14.01,2013-03-06 11:23:00,
2013-03-06 06:29:00,34.4,33.4,29.69,North,354,2.0,12.0,96,0.00,,BKN250,0.02,VWS V14.01,2013-03-06 11:29:00,
2013-03-06 06:35:00,34.4,33.4,29.69,NW,317,2.0,9.0,96,0.00,,BKN250,0.02,VWS V14.01,2013-03-06 11:35:00,
2013-03-06 06:41:00,34.4,33.4,29.69,West,268,2.0,9.0,96,0.00,,BKN250,0.02,VWS V14.01,2013-03-06 11:41:00,
2013-03-06 06:47:00,34.6,33.6,29.70,WNW,293,2.0,9.0,96,0.00,,BKN250,0.02,VWS V14.01,2013-03-06 11:47:00,
2013-03-06 06:53:00,34.6,33.6,29.70,NW,313,2.0,6.0,96,0.00,,BKN250,0.02,VWS V14.01,2013-03-06 11:53:00,
2013-03-06 06:59:00,34.7,33.7,29.70,WNW,291,4.0,7.0,96,0.00,,BKN250,0.02,VWS V14.01,2013-03-06 11:59:00,
2013-03-06 07:06:00,34.7,33.7,29.70,North,350,5.0,9.0,96,0.00,,OVC250,0.02,VWS V14.01,2013-03-06 12:06:00,
2013-03-06 07:12:00,34.9,33.9,29.70,WSW,245,1.0,11.0,96,0.00,,OVC250,0.02,VWS V14.01,2013-03-06 12:12:00,
2013-03-06 07:18:00,35.0,33.7,29.70,NW,323,9.0,12.0,95,0.00,,OVC250,0.02,VWS V14.01,2013-03-06 12:18:00,
2013-03-06 07:24:00,35.2,33.4,29.70,NW,324,0.0,11.0,93,0.00,,OVC250,0.02,VWS V14.01,2013-03-06 12:24:00,
2013-03-06 07:30:00,35.3,32.9,29.70,WNW,295,5.0,14.0,91,0.00,,OVC250,0.02,VWS V14.01,2013-03-06 12:30:00,
2013-03-06 07:36:00,35.5,32.3,29.70,NW,315,3.0,13.0,88,0.00,,OVC250,0.02,VWS V14.01,2013-03-06 12:36:00,
2013-03-06 07:42:00,35.6,31.8,29.70,NW,307,8.0,13.0,86,0.00,,OVC250,0.02,VWS V14.01,2013-03-06 12:42:00,
2013-03-06 07:48:00,35.8,31.5,29.72,WNW,286,7.0,16.0,84,0.00,,OVC250,0.02,VWS V14.01,2013-03-06 12:48:00,
2013-03-06 07:54:00,35.8,31.5,29.72,WNW,285,4.0,14.0,84,0.00,,OVC250,0.02,VWS V14.01,2013-03-06 12:54:00,
2013-03-06 08:00:00,35.9,31.5,29.72,NW,314,10.0,14.0,84,0.00,,OVC250,0.02,VWS V14.01,2013-03-06 13:00:00,
2013-03-06 08:06:00,36.0,31.0,29.72,WNW,295,12.0,14.0,82,0.00,,-RA,0.02,VWS V14.01,2013-03-06 13:06:00,
2013-03-06 08:12:00,36.2,30.9,29.72,West,276,9.0,9.0,81,0.00,,-RA,0.02,VWS V14.01,2013-03-06 13:12:00,
2013-03-06 08:18:00,36.3,31.0,29.73,NW,304,3.0,11.0,81,0.00,,-RA,0.02,VWS V14.01,2013-03-06 13:18:00,
2013-03-06 08:24:00,36.5,31.2,29.73,NW,321,7.0,7.0,81,0.00,,-RA,0.02,VWS V14.01,2013-03-06 13:24:00,
2013-03-06 08:30:00,36.5,31.2,29.73,NW,304,3.0,12.0,81,0.00,,-RA,0.02,VWS V14.01,2013-03-06 13:30:00,
2013-03-06 08:36:00,36.5,31.5,29.73,NW,305,5.0,11.0,82,0.00,,-RA,0.02,VWS V14.01,2013-03-06 13:36:00,
2013-03-06 08:42:00,36.5,31.8,29.73,West,278,4.0,11.0,83,0.00,,-RA,0.02,VWS V14.01,2013-03-06 13:42:00,
2013-03-06 08:48:00,36.5,31.8,29.73,WSW,257,10.0,13.0,83,0.00,,-RA,0.02,VWS V14.01,2013-03-06 13:48:00,
2013-03-06 08:54:00,36.6,31.9,29.73,NNW,335,6.0,9.0,83,0.00,,-RA,0.02,VWS V14.01,2013-03-06 13:54:00,
2013-03-06 09:00:00,36.6,31.6,29.73,WNW,290,2.0,13.0,82,0.00,,-RA,0.02,VWS V14.01,2013-03-06 14:00:00,
2013-03-06 09:05:00,36.6,31.6,29.73,NW,323,3.0,14.0,82,0.00,,BKN200,0.02,VWS V14.01,2013-03-06 14:05:00,
2013-03-06 09:10:00,36.6,31.6,29.73,NW,307,3.0,14.0,82,0.00,,BKN200,0.02,VWS V14.01,2013-03-06 14:10:00,
2013-03-06 09:15:00,36.3,31.3,29.74,North,350,12.0,12.0,82,0.00,,BKN200,0.02,VWS V14.01,2013-03-06 14:15:00,
2013-03-06 09:21:00,35.8,31.1,29.74,NW,309,8.0,12.0,83,0.00,,BKN200,0.02,VWS V14.01,2013-03-06 14:21:00,
2013-03-06 09:27:00,35.5,31.5,29.74,NW,316,7.0,13.0,85,0.00,,BKN200,0.02,VWS V14.01,2013-03-06 14:27:00,
2013-03-06 09:34:00,35.5,31.5,29.75,West,261,4.0,18.0,85,0.00,,BKN200,0.02,VWS V14.01,2013-03-06 14:34:00,
2013-03-06 09:40:00,35.9,30.6,29.75,WNW,286,7.0,18.0,81,0.00,,BKN200,0.02,VWS V14.01,2013-03-06 14:40:00,
2013-03-06 09:46:00,36.6,29.8,29.74,WNW,293,6.0,18.0,76,0.00,,BKN200,0.02,VWS V14.01,2013-03-06 14:46:00,
2013-03-06 09:52:00,37.3,29.8,29.74,WNW,294,4.0,7.0,74,0.00,,BKN200,0.02,VWS V14.01,2013-03-06 14:52:00,
2013-03-06 09:58:00,37.9,28.6,29.74,WNW,296,5.0,19.0,69,0.00,,BKN200,0.02,VWS V14.01,2013-03-06 14:58:00,
2013-03-06 10:04:00,38.3,29.4,29.73,West,259,5.0,18.0,70,0.00,,BKN200,0.02,VWS V14.01,2013-03-06 15:04:00,
2013-03-06 10:10:00,38.2,28.6,29.73,NW,309,4.0,18.0,68,0.00,,BKN200,0.02,VWS V14.01,2013-03-06 15:10:00,
2013-03-06 10:16:00,37.9,28.6,29.74,NNW,328,12.0,14.0,69,0.00,,BKN200,0.02,VWS V14.01,2013-03-06 15:16:00,
2013-03-06 10:22:00,37.6,28.7,29.74,NNW,331,4.0,10.0,70,0.00,,BKN200,0.02,VWS V14.01,2013-03-06 15:22:00,
2013-03-06 10:28:00,38.0,29.5,29.74,WSW,252,10.0,10.0,71,0.00,,BKN200,0.02,VWS V14.01,2013-03-06 15:28:00,
2013-03-06 10:34:00,38.3,28.0,29.75,NW,321,10.0,18.0,66,0.00,,BKN200,0.02,VWS V14.01,2013-03-06 15:34:00,
2013-03-06 10:40:00,38.3,28.3,29.75,South,188,2.0,19.0,67,0.00,,BKN200,0.02,VWS V14.01,2013-03-06 15:40:00,
2013-03-06 10:46:00,38.2,27.5,29.75,NW,326,8.0,18.0,65,0.00,,BKN200,0.02,VWS V14.01,2013-03-06 15:46:00,
2013-03-06 10:52:00,38.0,26.9,29.75,NW,304,14.0,20.0,64,0.00,,BKN200,0.02,VWS V14.01,2013-03-06 15:52:00,
2013-03-06 10:58:00,38.0,27.7,29.75,NW,307,9.0,20.0,66,0.00,,BKN200,0.02,VWS V14.01,2013-03-06 15:58:00,
2013-03-06 11:04:00,38.0,27.7,29.76,WNW,295,16.0,18.0,66,0.00,,BKN200,0.02,VWS V14.01,2013-03-06 16:04:00,
2013-03-06 11:10:00,37.9,28.3,29.76,West,266,9.0,19.0,68,0.00,,BKN200,0.02,VWS V14.01,2013-03-06 16:10:00,
2013-03-06 11:16:00,37.9,28.6,29.76,WNW,298,5.0,13.0,69,0.00,,BKN200,0.02,VWS V14.01,2013-03-06 16:16:00,
2013-03-06 11:22:00,37.9,29.0,29.76,WNW,300,5.0,13.0,70,0.00,,BKN200,0.02,VWS V14.01,2013-03-06 16:22:00,
2013-03-06 11:28:00,37.9,28.6,29.76,NW,304,0.0,19.0,69,0.00,,BKN200,0.02,VWS V14.01,2013-03-06 16:28:00,
2013-03-06 11:34:00,38.2,28.2,29.76,NW,325,2.0,12.0,67,0.00,,BKN200,0.02,VWS V14.01,2013-03-06 16:34:00,
2013-03-06 11:40:00,38.5,28.5,29.76,WNW,285,5.0,12.0,67,0.00,,BKN200,0.02,VWS V14.01,2013-03-06 16:40:00,
2013-03-06 11:46:00,38.8,28.4,29.76,WNW,300,4.0,22.0,66,0.00,,BKN200,0.02,VWS V14.01,2013-03-06 16:46:00,
2013-03-06 11:52:00,38.9,27.4,29.76,NW,304,8.0,18.0,63,0.00,,BKN200,0.02,VWS V14.01,2013-03-06 16:52:00,
2013-03-06 11:58:00,39.1,27.6,29.76,West,275,4.0,18.0,63,0.00,,BKN200,0.02,VWS V14.01,2013-03-06 16:58:00,
2013-03-06 12:04:00,39.3,28.2,29.76,NW,316,4.0,10.0,64,0.00,,OVC100,0.02,VWS V14.01,2013-03-06 17:04:00,
2013-03-06 12:10:00,39.5,27.2,29.76,WNW,298,3.0,16.0,61,0.00,,OVC100,0.02,VWS V14.01,2013-03-06 17:10:00,
2013-03-06 12:16:00,39.6,26.9,29.76,WNW,286,6.0,14.0,60,0.00,,OVC100,0.02,VWS V14.01,2013-03-06 17:16:00,
2013-03-06 12:22:00,39.9,26.3,29.76,WNW,289,5.0,16.0,58,0.00,,OVC100,0.02,VWS V14.01,2013-03-06 17:22:00,
2013-03-06 12:28:00,40.1,26.9,29.76,NW,309,5.0,16.0,59,0.00,,OVC100,0.02,VWS V14.01,2013-03-06 17:28:00,
2013-03-06 12:34:00,40.2,26.6,29.76,NW,318,4.0,18.0,58,0.00,,OVC100,0.02,VWS V14.01,2013-03-06 17:34:00,
2013-03-06 12:40:00,40.3,27.1,29.76,WNW,290,26.0,26.0,59,0.00,,OVC100,0.02,VWS V14.01,2013-03-06 17:40:00,
2013-03-06 12:45:00,40.2,27.0,29.78,WNW,291,10.0,26.0,59,0.00,,OVC100,0.02,VWS V14.01,2013-03-06 17:45:00,
2013-03-06 12:51:00,40.1,27.8,29.78,South,172,5.0,13.0,61,0.00,,OVC100,0.02,VWS V14.01,2013-03-06 17:51:00,
2013-03-06 12:57:00,40.2,27.0,29.78,NNE,26,3.0,16.0,59,0.00,,OVC100,0.02,VWS V14.01,2013-03-06 17:57:00,
2013-03-06 13:03:00,40.5,28.1,29.77,North,358,3.0,13.0,61,0.00,,OVC100,0.02,VWS V14.01,2013-03-06 18:03:00,
2013-03-06 13:09:00,40.8,28.0,29.77,NW,322,9.0,16.0,60,0.00,,OVC100,0.02,VWS V14.01,2013-03-06 18:09:00,
2013-03-06 13:15:00,40.9,27.7,29.78,NNW,345,3.0,20.0,59,0.00,,OVC100,0.02,VWS V14.01,2013-03-06 18:15:00,
2013-03-06 13:21:00,41.1,29.1,29.78,NW,314,1.0,5.0,62,0.00,,OVC100,0.02,VWS V14.01,2013-03-06 18:21:00,
2013-03-06 13:27:00,40.9,29.3,29.78,NW,325,4.0,16.0,63,0.00,,OVC100,0.02,VWS V14.01,2013-03-06 18:27:00,
2013-03-06 13:33:00,40.2,30.9,29.79,West,281,7.0,18.0,69,0.00,,OVC100,0.02,VWS V14.01,2013-03-06 18:33:00,
2013-03-06 13:39:00,39.6,31.7,29.79,WNW,302,4.0,18.0,73,0.00,,OVC100,0.02,VWS V14.01,2013-03-06 18:39:00,
2013-03-06 13:45:00,39.6,32.0,29.79,WNW,298,4.0,17.0,74,0.00,,OVC100,0.02,VWS V14.01,2013-03-06 18:45:00,
2013-03-06 13:51:00,39.9,32.0,29.79,NNW,333,14.0,14.0,73,0.00,,OVC100,0.02,VWS V14.01,2013-03-06 18:51:00,
2013-03-06 13:57:00,40.3,31.7,29.79,WNW,292,14.0,16.0,71,0.00,,OVC100,0.02,VWS V14.01,2013-03-06 18:57:00,
2013-03-06 14:03:00,40.8,31.8,29.79,West,280,5.0,21.0,70,0.00,,BKN200,0.02,VWS V14.01,2013-03-06 19:03:00,
2013-03-06 14:09:00,41.1,31.7,29.79,NW,314,3.0,21.0,69,0.00,,BKN200,0.02,VWS V14.01,2013-03-06 19:09:00,
2013-03-06 14:15:00,41.2,31.8,29.81,WNW,300,13.0,16.0,69,0.00,,BKN200,0.02,VWS V14.01,2013-03-06 19:15:00,
2013-03-06 14:21:00,41.3,31.2,29.81,NW,311,8.0,15.0,67,0.00,,BKN200,0.02,VWS V14.01,2013-03-06 19:21:00,
2013-03-06 14:27:00,41.5,31.4,29.81,WNW,288,6.0,15.0,67,0.00,,BKN200,0.02,VWS V14.01,2013-03-06 19:27:00,
2013-03-06 14:33:00,41.9,31.8,29.81,WNW,293,2.0,16.0,67,0.00,,BKN200,0.02,VWS V14.01,2013-03-06 19:33:00,
2013-03-06 14:39:00,42.5,32.3,29.81,NW,307,6.0,16.0,67,0.00,,BKN200,0.02,VWS V14.01,2013-03-06 19:39:00,
2013-03-06 14:46:00,42.9,32.0,29.81,NW,307,2.0,23.0,65,0.00,,BKN200,0.02,VWS V14.01,2013-03-06 19:46:00,
2013-03-06 14:52:00,43.1,31.4,29.81,NNW,345,7.0,19.0,63,0.00,,BKN200,0.02,VWS V14.01,2013-03-06 19:52:00,
2013-03-06 14:58:00,43.1,32.2,29.81,NW,309,5.0,19.0,65,0.00,,BKN200,0.02,VWS V14.01,2013-03-06 19:58:00,
2013-03-06 15:04:00,43.2,32.2,29.83,North,0,3.0,8.0,65,0.00,,BKN200,0.02,VWS V14.01,2013-03-06 20:04:00,
2013-03-06 15:10:00,43.2,31.9,29.83,NNW,344,4.0,11.0,64,0.00,,BKN200,0.02,VWS V14.01,2013-03-06 20:10:00,
2013-03-06 15:16:00,43.2,31.9,29.84,WNW,301,6.0,15.0,64,0.00,,BKN200,0.02,VWS V14.01,2013-03-06 20:16:00,
2013-03-06 15:22:00,43.2,31.9,29.84,NE,37,5.0,16.0,64,0.00,,BKN200,0.02,VWS V14.01,2013-03-06 20:22:00,
2013-03-06 15:28:00,43.2,31.9,29.84,North,10,4.0,16.0,64,0.00,,BKN200,0.02,VWS V14.01,2013-03-06 20:28:00,
2013-03-06 15:34:00,43.3,32.0,29.85,West,276,3.0,13.0,64,0.00,,BKN200,0.02,VWS V14.01,2013-03-06 20:34:00,
2013-03-06 15:40:00,43.3,32.3,29.85,WNW,302,11.0,13.0,65,0.00,,BKN200,0.02,VWS V14.01,2013-03-06 20:40:00,
2013-03-06 15:46:00,43.2,32.2,29.87,West,266,4.0,12.0,65,0.00,,BKN200,0.02,VWS V14.01,2013-03-06 20:46:00,
2013-03-06 15:52:00,43.1,32.5,29.87,NNE,23,3.0,5.0,66,0.00,,BKN200,0.02,VWS V14.01,2013-03-06 20:52:00,
2013-03-06 15:58:00,42.9,32.3,29.87,NNW,328,9.0,17.0,66,0.00,,BKN200,0.02,VWS V14.01,2013-03-06 20:58:00,
2013-03-06 16:04:00,42.9,32.7,29.88,NNW,345,5.0,11.0,67,0.00,,BKN200,0.02,VWS V14.01,2013-03-06 21:04:00,
2013-03-06 16:10:00,42.9,32.7,29.88,NW,326,4.0,11.0,67,0.00,,BKN200,0.02,VWS V14.01,2013-03-06 21:10:00,
2013-03-06 16:15:00,43.1,32.2,29.89,NW,305,12.0,13.0,65,0.00,,BKN200,0.02,VWS V14.01,2013-03-06 21:15:00,
2013-03-06 16:21:00,43.2,32.2,29.89,NW,324,7.0,7.0,65,0.00,,BKN200,0.02,VWS V14.01,2013-03-06 21:21:00,
2013-03-06 16:27:00,43.3,32.3,29.89,SSE,164,1.0,10.0,65,0.00,,BKN200,0.02,VWS V14.01,2013-03-06 21:27:00,
2013-03-06 16:33:00,43.3,32.7,29.91,NW,310,0.0,9.0,66,0.00,,BKN200,0.02,VWS V14.01,2013-03-06 21:33:00,
2013-03-06 16:39:00,43.2,32.6,29.91,WNW,288,7.0,16.0,66,0.00,,BKN200,0.02,VWS V14.01,2013-03-06 21:39:00,
2013-03-06 16:45:00,42.9,32.7,29.93,WNW,287,6.0,16.0,67,0.00,,BKN200,0.02,VWS V14.01,2013-03-06 21:45:00,
2013-03-06 16:51:00,42.8,33.0,29.93,North,0,2.0,9.0,68,0.00,,BKN200,0.02,VWS V14.01,2013-03-06 21:51:00,
2013-03-06 16:57:00,42.8,33.3,29.93,NW,325,10.0,10.0,69,0.00,,BKN200,0.02,VWS V14.01,2013-03-06 21:57:00,
2013-03-06 17:03:00,42.5,33.8,29.94,WNW,290,9.0,13.0,71,0.00,,BKN200,0.02,VWS V14.01,2013-03-06 22:03:00,
2013-03-06 17:09:00,42.3,33.9,29.94,WNW,298,4.0,13.0,72,0.00,,BKN200,0.02,VWS V14.01,2013-03-06 22:09:00,
2013-03-06 17:15:00,42.1,34.1,29.95,WNW,289,3.0,10.0,73,0.00,,BKN200,0.02,VWS V14.01,2013-03-06 22:15:00,
2013-03-06 17:21:00,41.8,34.1,29.95,North,350,5.0,11.0,74,0.00,,BKN200,0.02,VWS V14.01,2013-03-06 22:21:00,
2013-03-06 17:27:00,41.5,34.5,29.95,WNW,291,5.0,12.0,76,0.00,,BKN200,0.02,VWS V14.01,2013-03-06 22:27:00,
2013-03-06 17:33:00,41.2,34.9,29.97,NW,314,5.0,12.0,78,0.00,,BKN200,0.02,VWS V14.01,2013-03-06 22:33:00,
2013-03-06 17:39:00,40.9,35.2,29.97,WNW,287,4.0,12.0,80,0.00,,BKN200,0.02,VWS V14.01,2013-03-06 22:39:00,
2013-03-06 17:45:00,40.6,35.2,29.99,NNW,334,5.0,9.0,81,0.00,,BKN200,0.02,VWS V14.01,2013-03-06 22:45:00,
2013-03-06 17:51:00,40.3,35.6,29.99,North,349,3.0,6.0,83,0.00,,BKN200,0.02,VWS V14.01,2013-03-06 22:51:00,
2013-03-06 17:57:00,40.1,36.0,29.99,NNW,328,7.0,11.0,85,0.00,,BKN200,0.02,VWS V14.01,2013-03-06 22:57:00,
2013-03-06 18:04:00,40.1,36.0,30.00,North,358,0.0,4.0,85,0.00,,BKN200,0.02,VWS V14.01,2013-03-06 23:04:00,
2013-03-06 18:10:00,39.9,36.1,30.00,NW,309,0.0,9.0,86,0.00,,BKN200,0.02,VWS V14.01,2013-03-06 23:10:00,
2013-03-06 18:16:00,39.9,36.3,30.02,NW,319,5.0,6.0,87,0.00,,BKN200,0.02,VWS V14.01,2013-03-06 23:16:00,
2013-03-06 18:22:00,39.9,36.1,30.02,North,1,7.0,9.0,86,0.00,,BKN200,0.02,VWS V14.01,2013-03-06 23:22:00,
2013-03-06 18:28:00,40.1,36.0,30.02,WSW,256,3.0,9.0,85,0.00,,BKN200,0.02,VWS V14.01,2013-03-06 23:28:00,
2013-03-06 18:34:00,40.2,35.8,30.03,North,358,2.0,5.0,84,0.00,,BKN200,0.02,VWS V14.01,2013-03-06 23:34:00,
2013-03-06 18:40:00,40.3,35.6,30.03,NNW,333,0.0,5.0,83,0.00,,BKN200,0.02,VWS V14.01,2013-03-06 23:40:00,
2013-03-06 18:46:00,40.5,35.8,30.04,West,275,0.0,5.0,83,0.00,,BKN200,0.02,VWS V14.01,2013-03-06 23:46:00,
2013-03-06 18:52:00,40.3,35.6,30.04,North,356,0.0,3.0,83,0.00,,BKN200,0.02,VWS V14.01,2013-03-06 23:52:00,
2013-03-06 18:58:00,40.5,35.1,30.04,NW,309,3.0,4.0,81,0.00,,BKN200,0.02,VWS V14.01,2013-03-06 23:58:00,
2013-03-06 19:04:00,40.6,34.6,30.05,NW,321,0.0,5.0,79,0.00,,BKN200,0.02,VWS V14.01,2013-03-07 00:04:00,
2013-03-06 19:10:00,40.8,34.5,30.05,NW,316,1.0,6.0,78,0.00,,BKN200,0.02,VWS V14.01,2013-03-07 00:10:00,
2013-03-06 19:16:00,40.9,34.3,30.06,North,0,4.0,5.0,77,0.00,,BKN200,0.02,VWS V14.01,2013-03-07 00:16:00,
2013-03-06 19:22:00,41.1,33.8,30.06,NW,317,3.0,3.0,75,0.00,,BKN200,0.02,VWS V14.01,2013-03-07 00:22:00,
2013-03-06 19:28:00,41.2,33.5,30.06,NW,314,1.0,5.0,74,0.00,,BKN200,0.02,VWS V14.01,2013-03-07 00:28:00,
2013-03-06 19:34:00,41.3,33.3,30.06,West,269,2.0,7.0,73,0.00,,BKN200,0.02,VWS V14.01,2013-03-07 00:34:00,
2013-03-06 19:40:00,41.5,32.5,30.06,WNW,295,4.0,10.0,70,0.00,,BKN200,0.02,VWS V14.01,2013-03-07 00:40:00,
2013-03-06 19:46:00,41.8,31.7,30.08,North,4,4.0,11.0,67,0.00,,BKN200,0.02,VWS V14.01,2013-03-07 00:46:00,
2013-03-06 19:52:00,41.8,31.7,30.08,SW,219,2.0,6.0,67,0.00,,BKN200,0.02,VWS V14.01,2013-03-07 00:52:00,
2013-03-06 19:58:00,41.8,30.5,30.08,ENE,63,7.0,12.0,64,0.00,,BKN200,0.02,VWS V14.01,2013-03-07 00:58:00,
2013-03-06 20:06:00,41.8,30.5,30.08,NW,305,0.0,11.0,64,0.00,,BKN055,0.02,VWS V14.01,2013-03-07 01:06:00,
2013-03-06 20:12:00,41.8,30.5,30.08,NE,45,2.0,5.0,64,0.00,,BKN055,0.02,VWS V14.01,2013-03-07 01:12:00,
2013-03-06 20:18:00,41.8,29.8,30.09,ESE,120,0.0,9.0,62,0.00,,BKN055,0.02,VWS V14.01,2013-03-07 01:18:00,
2013-03-06 20:24:00,41.8,30.1,30.09,West,264,5.0,9.0,63,0.00,,BKN055,0.02,VWS V14.01,2013-03-07 01:24:00,
2013-03-06 20:30:00,41.8,29.8,30.09,North,11,4.0,13.0,62,0.00,,BKN055,0.02,VWS V14.01,2013-03-07 01:30:00,
2013-03-06 20:36:00,41.6,29.6,30.09,WNW,285,12.0,12.0,62,0.00,,BKN055,0.02,VWS V14.01,2013-03-07 01:36:00,
2013-03-06 20:42:00,41.6,29.6,30.09,ESE,122,3.0,4.0,62,0.00,,BKN055,0.02,VWS V14.01,2013-03-07 01:42:00,
2013-03-06 20:48:00,41.6,29.6,30.10,West,264,5.0,17.0,62,0.00,,BKN055,0.02,VWS V14.01,2013-03-07 01:48:00,
2013-03-06 20:54:00,41.6,29.6,30.10,NW,325,2.0,6.0,62,0.00,,BKN055,0.02,VWS V14.01,2013-03-07 01:54:00,
2013-03-06 21:00:00,41.5,29.9,30.10,North,0,9.0,10.0,63,0.00,,BKN055,0.02,VWS V14.01,2013-03-07 02:00:00,
2013-03-06 21:06:00,41.5,29.1,30.10,North,356,5.0,10.0,61,0.00,,BKN050,0.02,VWS V14.01,2013-03-07 02:06:00,
2013-03-06 21:12:00,41.6,29.6,30.10,WNW,297,0.0,5.0,62,0.00,,BKN050,0.02,VWS V14.01,2013-03-07 02:12:00,
2013-03-06 21:18:00,41.5,29.9,30.11,West,274,0.0,9.0,63,0.00,,BKN050,0.02,VWS V14.01,2013-03-07 02:18:00,
2013-03-06 21:24:00,41.5,29.5,30.11,NW,323,3.0,5.0,62,0.00,,BKN050,0.02,VWS V14.01,2013-03-07 02:24:00,
2013-03-06 21:30:00,41.5,29.5,30.11,NW,307,2.0,7.0,62,0.00,,BKN050,0.02,VWS V14.01,2013-03-07 02:30:00,
2013-03-06 21:35:00,41.3,29.3,30.11,NW,317,3.0,7.0,62,0.00,,BKN050,0.02,VWS V14.01,2013-03-07 02:35:00,
2013-03-06 21:40:00,41.1,29.1,30.11,WNW,300,0.0,7.0,62,0.00,,BKN050,0.02,VWS V14.01,2013-03-07 02:40:00,
2013-03-06 21:45:00,40.9,29.3,30.11,NW,323,1.0,6.0,63,0.00,,BKN050,0.02,VWS V14.01,2013-03-07 02:45:00,
2013-03-06 21:51:00,40.5,29.3,30.11,WNW,300,3.0,4.0,64,0.00,,BKN050,0.02,VWS V14.01,2013-03-07 02:51:00,
2013-03-06 21:58:00,40.3,29.1,30.11,WNW,303,3.0,5.0,64,0.00,,BKN050,0.02,VWS V14.01,2013-03-07 02:58:00,
2013-03-06 22:04:00,40.1,29.7,30.11,NNW,335,0.0,4.0,66,0.00,,BKN044,0.02,VWS V14.01,2013-03-07 03:04:00,
2013-03-06 22:10:00,39.8,29.8,30.11,West,281,1.0,4.0,67,0.00,,BKN044,0.02,VWS V14.01,2013-03-07 03:10:00,
2013-03-06 22:16:00,39.3,29.6,30.12,WNW,295,1.0,4.0,68,0.00,,BKN044,0.02,VWS V14.01,2013-03-07 03:16:00,
2013-03-06 22:22:00,39.2,29.9,30.12,West,281,0.0,2.0,69,0.00,,BKN044,0.02,VWS V14.01,2013-03-07 03:22:00,
2013-03-06 22:28:00,38.9,29.6,30.12,NW,310,1.0,5.0,69,0.00,,BKN044,0.02,VWS V14.01,2013-03-07 03:28:00,
2013-03-06 22:34:00,38.6,29.7,30.13,NNW,329,0.0,3.0,70,0.00,,BKN044,0.02,VWS V14.01,2013-03-07 03:34:00,
2013-03-06 22:40:00,38.3,29.7,30.13,WNW,302,2.0,3.0,71,0.00,,BKN044,0.02,VWS V14.01,2013-03-07 03:40:00,
2013-03-06 22:46:00,38.0,29.5,30.13,WNW,300,0.0,4.0,71,0.00,,BKN044,0.02,VWS V14.01,2013-03-07 03:46:00,
2013-03-06 22:52:00,37.9,29.4,30.13,WNW,295,2.0,5.0,71,0.00,,BKN044,0.02,VWS V14.01,2013-03-07 03:52:00,
2013-03-06 22:58:00,37.6,29.4,30.13,WSW,252,5.0,5.0,72,0.00,,BKN044,0.02,VWS V14.01,2013-03-07 03:58:00,
2013-03-06 23:04:00,37.3,29.1,30.13,NW,311,2.0,10.0,72,0.00,,CLR,0.02,VWS V14.01,2013-03-07 04:04:00,
2013-03-06 23:10:00,37.3,29.1,30.13,NW,324,1.0,10.0,72,0.00,,CLR,0.02,VWS V14.01,2013-03-07 04:10:00,
2013-03-06 23:16:00,37.2,29.0,30.13,WNW,290,1.0,4.0,72,0.00,,CLR,0.02,VWS V14.01,2013-03-07 04:16:00,
2013-03-06 23:22:00,37.0,28.8,30.13,NW,321,2.0,3.0,72,0.00,,CLR,0.02,VWS V14.01,2013-03-07 04:22:00,
2013-03-06 23:28:00,36.9,29.1,30.13,NNW,335,3.0,5.0,73,0.00,,CLR,0.02,VWS V14.01,2013-03-07 04:28:00,
2013-03-06 23:34:00,36.8,29.0,30.13,WNW,300,0.0,3.0,73,0.00,,CLR,0.02,VWS V14.01,2013-03-07 04:34:00,
2013-03-06 23:40:00,36.8,29.0,30.13,WNW,287,3.0,4.0,73,0.00,,CLR,0.02,VWS V14.01,2013-03-07 04:40:00,
2013-03-06 23:46:00,36.6,28.8,30.13,WNW,301,0.0,4.0,73,0.00,,CLR,0.02,VWS V14.01,2013-03-07 04:46:00,
2013-03-06 23:52:00,36.6,28.8,30.13,NNW,348,2.0,2.0,73,0.00,,CLR,0.02,VWS V14.01,2013-03-07 04:52:00,
2013-03-06 23:58:00,36.6,28.8,30.13,NW,318,1.0,9.0,73,0.00,,CLR,0.02,VWS V14.01,2013-03-07 04:58:00,